Time;durP1;ratioP1;P1;durP2;ratioP2;P2;SDS_P1;SDS_P2;PMS_P1;PMS_P2;Temp;Humidity;BMP_temperature;BMP_pressure;BME280_temperature;BME280_humidity;BME280_pressure;Samples;Min_cycle;Max_cycle;Signal;HPM_P1;HPM_P2
2022/03/13 00:02:23;;;;;;;125.60;56.90;;;;;;;0.41;44.74;100148.71;232466;1223;139065;-61
2022/03/13 00:07:28;;;;;;;127.50;58.00;;;;;;;0.50;44.82;100141.52;232239;1224;138319;-61
2022/03/13 00:12:32;;;;;;;122.70;55.60;;;;;;;0.53;44.67;100141.67;232308;1223;139283;-61
2022/03/13 00:17:35;;;;;;;129.60;57.50;;;;;;;0.54;44.76;100143.59;232129;1224;141913;-59
2022/03/13 00:22:39;;;;;;;132.90;59.70;;;;;;;0.57;44.71;100140.08;232324;1224;139302;-60
2022/03/13 00:27:42;;;;;;;126.40;58.20;;;;;;;0.62;44.65;100133.95;232325;1223;139330;-58
2022/03/13 00:32:45;;;;;;;123.30;56.50;;;;;;;0.61;44.82;100136.23;232254;1223;139064;-60
2022/03/13 00:37:48;;;;;;;130.70;58.70;;;;;;;0.57;45.00;100135.90;232257;1224;140856;-60
2022/03/13 00:42:51;;;;;;;123.70;55.10;;;;;;;0.56;44.98;100129.44;232348;1223;139520;-59
2022/03/13 00:47:55;;;;;;;129.90;57.60;;;;;;;0.51;45.15;100129.13;232197;1222;138851;-58
2022/03/13 00:52:58;;;;;;;123.40;54.60;;;;;;;0.45;45.29;100126.33;232266;1224;139527;-57
2022/03/13 00:58:02;;;;;;;122.60;55.40;;;;;;;0.41;45.50;100126.02;232263;1224;139856;-62
2022/03/13 01:03:05;;;;;;;122.70;56.70;;;;;;;0.38;45.61;100121.48;232397;1223;139412;-59
2022/03/13 01:08:08;;;;;;;132.60;57.90;;;;;;;0.36;45.45;100124.27;232326;1223;139210;-59
2022/03/13 01:13:11;;;;;;;127.50;55.90;;;;;;;0.28;45.66;100120.80;232347;1223;138514;-60
2022/03/13 01:18:16;;;;;;;116.00;54.50;;;;;;;0.21;45.68;100126.05;232257;1223;138881;-60
2022/03/13 01:23:19;;;;;;;135.70;58.00;;;;;;;0.18;45.87;100110.89;232124;1224;231447;-60
2022/03/13 01:28:22;;;;;;;128.10;57.90;;;;;;;0.22;46.13;100111.23;232194;1222;139177;-60
2022/03/13 01:33:25;;;;;;;120.70;54.70;;;;;;;0.25;46.25;100107.90;232453;1223;139103;-60
2022/03/13 01:38:32;;;;;;;125.10;56.60;;;;;;;0.22;46.35;100104.77;232270;1224;139146;-60
2022/03/13 01:43:36;;;;;;;116.30;54.70;;;;;;;0.19;46.42;100098.31;232367;1223;138721;-61
2022/03/13 01:49:03;;;;;;;117.60;51.30;;;;;;;0.18;46.31;100089.25;232360;1223;139342;-60
2022/03/13 01:54:12;;;;;;;102.80;49.40;;;;;;;0.19;46.34;100082.77;232306;1223;139598;-60
2022/03/13 01:59:15;;;;;;;102.50;48.80;;;;;;;0.16;46.46;100072.68;232273;1223;139608;-59
2022/03/13 02:04:26;;;;;;;92.70;43.40;;;;;;;0.13;46.47;100068.33;232649;1221;139659;-61
2022/03/13 02:09:29;;;;;;;100.30;47.90;;;;;;;0.14;46.20;100070.95;232258;1223;139338;-60
2022/03/13 02:14:34;;;;;;;109.00;50.40;;;;;;;0.09;46.36;100070.45;233076;1220;139750;-58
2022/03/13 02:19:37;;;;;;;116.50;52.40;;;;;;;-0.01;46.61;100065.76;233203;1220;139964;-59
2022/03/13 02:24:40;;;;;;;112.60;53.70;;;;;;;-0.09;46.94;100071.17;233063;1220;140352;-59
2022/03/13 02:29:43;;;;;;;107.60;52.00;;;;;;;-0.16;47.13;100070.33;233072;1220;139391;-61
2022/03/13 02:34:48;;;;;;;114.20;51.10;;;;;;;-0.26;47.10;100078.52;233094;1220;139662;-61
2022/03/13 02:39:51;;;;;;;111.00;50.60;;;;;;;-0.33;47.11;100080.29;233109;1220;140890;-61
2022/03/13 02:44:54;;;;;;;112.80;50.70;;;;;;;-0.41;47.26;100075.41;233007;1220;139599;-60
2022/03/13 02:49:57;;;;;;;104.90;50.70;;;;;;;-0.48;47.56;100071.77;233219;1219;139220;-58
2022/03/13 02:55:00;;;;;;;121.40;51.50;;;;;;;-0.51;47.57;100076.29;233080;1220;139514;-59
2022/03/13 03:00:03;;;;;;;117.20;49.40;;;;;;;-0.53;47.93;100079.61;233004;1220;140106;-59
2022/03/13 03:05:08;;;;;;;108.90;50.20;;;;;;;-0.56;48.16;100084.66;233121;1220;139715;-59
2022/03/13 03:10:12;;;;;;;107.90;48.10;;;;;;;-0.60;48.05;100080.66;233034;1220;139606;-60
2022/03/13 03:15:18;;;;;;;104.00;47.90;;;;;;;-0.62;48.28;100079.08;233052;1220;139900;-60
2022/03/13 03:20:21;;;;;;;102.40;47.80;;;;;;;-0.63;48.18;100075.09;233078;1220;142510;-60
2022/03/13 03:25:26;;;;;;;110.60;50.10;;;;;;;-0.62;48.37;100073.67;233121;1220;139188;-60
2022/03/13 03:30:30;;;;;;;116.00;51.80;;;;;;;-0.65;48.17;100069.67;232976;1220;139528;-60
2022/03/13 03:35:35;;;;;;;112.30;50.40;;;;;;;-0.65;48.32;100062.70;232936;1220;139219;-61
2022/03/13 03:40:38;;;;;;;106.70;49.40;;;;;;;-0.67;48.52;100061.66;233050;1220;139770;-61
2022/03/13 03:45:41;;;;;;;101.40;48.90;;;;;;;-0.66;48.64;100066.02;233037;1220;139806;-61
2022/03/13 03:50:44;;;;;;;107.70;48.50;;;;;;;-0.71;48.67;100072.98;233097;1220;139888;-58
2022/03/13 03:55:47;;;;;;;115.10;49.80;;;;;;;-0.76;48.73;100076.47;233182;1220;139086;-59
2022/03/13 04:00:50;;;;;;;111.50;49.20;;;;;;;-0.79;48.83;100072.10;233066;1220;139280;-59
2022/03/13 04:05:53;;;;;;;111.70;50.30;;;;;;;-0.80;48.93;100068.11;233092;1220;139433;-58
2022/03/13 04:10:56;;;;;;;118.90;51.10;;;;;;;-0.83;49.03;100064.27;233075;1220;139386;-58
2022/03/13 04:15:58;;;;;;;124.40;54.00;;;;;;;-0.89;49.25;100064.96;233124;1220;139871;-58
2022/03/13 04:21:04;;;;;;;99.00;47.30;;;;;;;-0.89;49.42;100075.41;233063;1220;138639;-60
2022/03/13 04:26:07;;;;;;;102.10;43.60;;;;;;;-0.87;49.28;100076.29;233066;1220;138512;-60
2022/03/13 04:31:12;;;;;;;92.60;43.10;;;;;;;-0.93;49.20;100080.29;233144;1218;139726;-59
2022/03/13 04:36:18;;;;;;;93.30;43.70;;;;;;;-0.94;49.19;100079.41;233139;1220;141589;-59
2022/03/13 04:41:21;;;;;;;95.30;45.00;;;;;;;-0.92;49.35;100073.14;233034;1220;138853;-59
2022/03/13 04:46:24;;;;;;;96.20;44.90;;;;;;;-0.96;49.14;100059.73;233035;1220;139616;-59
2022/03/13 04:51:27;;;;;;;92.20;41.40;;;;;;;-1.02;49.20;100052.75;233015;1220;141083;-60
2022/03/13 04:56:32;;;;;;;92.70;42.80;;;;;;;-1.04;49.29;100063.21;232982;1220;139754;-59
2022/03/13 05:01:35;;;;;;;96.30;43.80;;;;;;;-1.08;49.48;100072.08;233167;1220;139185;-59
2022/03/13 05:06:40;;;;;;;95.40;42.50;;;;;;;-1.11;49.54;100077.30;233096;1220;139261;-59
2022/03/13 05:11:43;;;;;;;104.80;45.90;;;;;;;-1.11;49.63;100069.12;233057;1220;138991;-59
2022/03/13 05:16:46;;;;;;;89.80;41.80;;;;;;;-1.12;49.65;100070.16;232874;1218;139215;-58
2022/03/13 05:21:49;;;;;;;90.60;41.20;;;;;;;-1.11;49.75;100082.02;233038;1220;138927;-60
2022/03/13 05:26:52;;;;;;;94.70;41.80;;;;;;;-1.06;49.90;100084.63;233058;1220;139537;-58
2022/03/13 05:31:55;;;;;;;85.50;40.80;;;;;;;-0.98;50.04;100092.46;233088;1220;140013;-59
2022/03/13 05:36:58;;;;;;;92.50;43.30;;;;;;;-0.88;50.31;100089.87;233065;1220;140757;-59
2022/03/13 05:42:06;;;;;;;90.20;40.70;;;;;;;-0.75;50.30;100089.54;233080;1220;138880;-60
2022/03/13 05:47:09;;;;;;;88.80;42.60;;;;;;;-0.63;50.55;100100.52;233073;1219;140497;-60
2022/03/13 05:52:14;;;;;;;85.30;41.60;;;;;;;-0.48;50.49;100101.75;233044;1220;138683;-60
2022/03/13 05:57:18;;;;;;;88.00;42.20;;;;;;;-0.35;50.49;100098.08;233062;1220;139237;-58
2022/03/13 06:02:22;;;;;;;93.00;43.30;;;;;;;-0.26;50.66;100098.94;233137;1219;138336;-60
2022/03/13 06:07:25;;;;;;;90.40;42.30;;;;;;;-0.11;50.73;100099.77;233160;1220;139333;-59
2022/03/13 06:12:32;;;;;;;89.80;43.70;;;;;;;0.02;50.27;100101.86;233004;1220;140583;-61
2022/03/13 06:17:53;;;;;;;95.30;42.80;;;;;;;0.12;50.36;100102.18;232943;1220;138580;-59
2022/03/13 06:22:58;;;;;;;99.00;45.80;;;;;;;0.25;50.20;100104.41;233083;1219;138572;-59
2022/03/13 06:28:02;;;;;;;93.70;44.20;;;;;;;0.33;50.09;100106.13;233110;1220;138503;-58
2022/03/13 06:33:05;;;;;;;104.00;50.30;;;;;;;0.42;50.40;100108.89;232878;1219;139069;-58
2022/03/13 06:38:08;;;;;;;118.70;56.00;;;;;;;0.53;50.43;100111.83;233029;1220;138215;-58
2022/03/13 06:43:11;;;;;;;126.70;58.00;;;;;;;0.69;50.52;100116.11;233155;1220;138831;-58
2022/03/13 06:48:15;;;;;;;164.50;75.60;;;;;;;0.85;50.47;100119.52;232989;1220;139295;-59
2022/03/13 06:53:19;;;;;;;190.00;82.10;;;;;;;0.99;50.19;100121.73;232941;1220;139437;-58
2022/03/13 06:58:22;;;;;;;169.10;73.30;;;;;;;1.09;49.65;100120.26;232964;1220;139941;-58
2022/03/13 07:03:25;;;;;;;140.20;63.50;;;;;;;1.18;49.24;100123.34;232976;1220;138881;-59
2022/03/13 07:08:29;;;;;;;111.70;52.50;;;;;;;1.29;49.10;100124.84;232946;1220;140293;-61
2022/03/13 07:13:32;;;;;;;103.50;48.70;;;;;;;1.40;49.02;100131.59;233081;1220;138490;-57
2022/03/13 07:18:36;;;;;;;99.50;44.70;;;;;;;1.48;48.89;100125.07;232900;1220;138838;-60
2022/03/13 07:23:39;;;;;;;90.30;44.70;;;;;;;1.57;48.63;100115.38;232950;1220;140086;-59
2022/03/13 07:28:42;;;;;;;91.60;43.10;;;;;;;1.66;48.44;100122.12;232879;1220;139358;-59
2022/03/13 07:33:45;;;;;;;331.40;202.50;;;;;;;1.81;48.87;100125.48;232984;1220;138079;-59
2022/03/13 07:38:48;;;;;;;117.80;56.70;;;;;;;2.10;48.71;100130.64;233052;1220;138617;-59
2022/03/13 07:43:55;;;;;;;109.50;52.10;;;;;;;2.28;48.23;100122.58;233120;1220;139230;-59
2022/03/13 07:48:59;;;;;;;106.60;52.20;;;;;;;2.41;47.70;100112.63;233007;1220;138953;-58
2022/03/13 07:54:03;;;;;;;117.20;58.20;;;;;;;2.48;47.53;100111.83;232982;1218;139556;-59
2022/03/13 07:59:06;;;;;;;203.90;112.50;;;;;;;2.64;47.68;100123.73;233083;1219;139135;-59
2022/03/13 08:04:09;;;;;;;125.80;60.10;;;;;;;2.86;47.79;100122.22;233047;1219;139700;-61
2022/03/13 08:09:13;;;;;;;129.10;62.70;;;;;;;3.00;47.26;100129.92;233022;1220;138990;-61
2022/03/13 08:14:16;;;;;;;133.70;62.20;;;;;;;3.14;47.25;100127.27;233091;1220;139321;-60
2022/03/13 08:19:19;;;;;;;122.40;60.10;;;;;;;3.29;47.13;100123.73;233175;1219;140076;-60
2022/03/13 08:24:22;;;;;;;114.60;57.10;;;;;;;3.45;47.21;100122.23;233092;1220;138576;-60
2022/03/13 08:29:25;;;;;;;114.90;55.90;;;;;;;3.64;47.26;100122.99;233079;1220;139165;-60
2022/03/13 08:34:30;;;;;;;103.20;52.10;;;;;;;3.86;47.24;100119.12;233109;1220;138911;-60
2022/03/13 08:39:37;;;;;;;82.90;42.30;;;;;;;4.09;46.93;100125.73;233133;1218;140978;-60
2022/03/13 08:44:40;;;;;;;167.10;92.00;;;;;;;4.34;46.56;100118.59;233035;1220;139096;-59
2022/03/13 08:49:46;;;;;;;102.80;52.50;;;;;;;4.63;46.30;100114.33;233183;1220;139638;-59
2022/03/13 08:54:49;;;;;;;118.40;59.70;;;;;;;4.90;45.72;100112.02;233032;1219;139491;-59
2022/03/13 08:59:52;;;;;;;123.60;61.00;;;;;;;5.10;45.97;100105.95;233060;1219;138603;-57
2022/03/13 09:04:55;;;;;;;119.10;60.80;;;;;;;5.27;45.56;100103.26;232971;1220;138644;-57
2022/03/13 09:09:58;;;;;;;121.20;60.00;;;;;;;5.40;45.20;100101.02;233093;1220;139708;-58
2022/03/13 09:15:03;;;;;;;152.60;87.60;;;;;;;5.55;45.05;100102.77;233035;1220;138661;-60
2022/03/13 09:20:07;;;;;;;63.60;33.90;;;;;;;5.74;44.42;100106.34;233140;1220;138340;-60
2022/03/13 09:25:10;;;;;;;62.10;32.10;;;;;;;5.88;43.62;100106.87;233160;1220;139131;-59
2022/03/13 09:30:14;;;;;;;63.10;32.40;;;;;;;6.06;43.30;100100.80;233041;1220;138799;-62
2022/03/13 09:35:17;;;;;;;65.10;33.50;;;;;;;6.27;42.84;100097.41;232801;1220;139122;-59
2022/03/13 09:40:20;;;;;;;64.30;33.30;;;;;;;6.45;42.55;100097.45;233154;1220;138832;-58
2022/03/13 09:45:24;;;;;;;56.60;29.10;;;;;;;6.59;41.59;100089.11;232994;1220;138733;-60
2022/03/13 09:50:28;;;;;;;51.40;27.70;;;;;;;6.76;41.27;100086.85;233108;1220;138810;-60
2022/03/13 09:55:31;;;;;;;135.50;76.10;;;;;;;6.93;40.97;100083.34;233170;1220;139665;-59
2022/03/13 10:00:36;;;;;;;60.70;31.20;;;;;;;7.18;41.12;100074.80;233184;1220;139314;-58
2022/03/13 10:05:44;;;;;;;52.30;28.00;;;;;;;7.37;40.52;100072.27;233020;1220;139171;-60
2022/03/13 10:10:49;;;;;;;47.10;24.90;;;;;;;7.55;40.41;100069.05;233059;1220;139120;-58
2022/03/13 10:15:52;;;;;;;43.70;23.50;;;;;;;7.74;39.61;100064.51;233083;1220;139916;-58
2022/03/13 10:20:56;;;;;;;46.60;24.00;;;;;;;7.96;39.34;100058.11;233075;1220;138957;-58
2022/03/13 10:25:59;;;;;;;341.20;220.10;;;;;;;8.14;39.06;100049.15;233161;1220;139922;-57
2022/03/13 10:31:02;;;;;;;40.40;23.60;;;;;;;8.38;38.90;100045.81;233071;1219;140674;-60
2022/03/13 10:36:34;;;;;;;41.50;20.70;;;;;;;8.64;38.48;100047.32;233067;1219;139337;-60
2022/03/13 10:41:44;;;;;;;40.80;22.00;;;;;;;8.96;38.22;100042.23;233088;1219;138469;-62
2022/03/13 10:46:54;;;;;;;37.80;20.80;;;;;;;9.28;38.24;100041.45;233039;1219;139145;-59
2022/03/13 10:51:59;;;;;;;34.30;21.00;;;;;;;9.60;37.75;100036.42;232998;1220;140060;-58
2022/03/13 10:57:08;;;;;;;31.70;17.70;;;;;;;9.86;37.44;100034.95;232876;1220;140358;-57
2022/03/13 11:02:14;;;;;;;24.80;14.70;;;;;;;10.03;36.76;100035.30;232804;1220;139176;-62
2022/03/13 11:07:19;;;;;;;22.90;12.80;;;;;;;10.13;36.42;100033.43;233127;1219;139799;-61
2022/03/13 11:12:24;;;;;;;24.50;13.10;;;;;;;10.19;35.79;100032.45;233077;1220;141216;-59
2022/03/13 11:17:34;;;;;;;632.70;494.90;;;;;;;10.24;35.43;100025.68;233015;1220;139412;-59
2022/03/13 11:22:37;;;;;;;37.30;22.50;;;;;;;10.36;35.30;100029.98;233037;1220;139948;-60
2022/03/13 11:27:42;;;;;;;22.50;13.50;;;;;;;10.47;34.92;100026.08;233021;1220;139714;-60
2022/03/13 11:32:46;;;;;;;17.30;11.00;;;;;;;10.51;34.20;100022.50;233039;1220;140774;-68
2022/03/13 11:38:08;;;;;;;21.10;10.60;;;;;;;10.57;33.57;100018.89;233042;1220;139043;-59
2022/03/13 11:43:15;;;;;;;20.20;11.30;;;;;;;10.61;33.03;100016.40;233023;1220;139444;-59
2022/03/13 11:48:19;;;;;;;22.30;12.30;;;;;;;10.68;32.89;100009.66;232868;1220;139316;-60
2022/03/13 11:53:32;;;;;;;18.70;11.80;;;;;;;10.87;33.01;100000.77;232942;1220;140342;-60
2022/03/13 11:59:15;;;;;;;21.30;12.30;;;;;;;11.09;32.48;99993.52;233000;1220;138747;-61
2022/03/13 12:04:18;;;;;;;23.90;12.20;;;;;;;11.37;32.18;99987.35;233094;1220;139056;-61
2022/03/13 12:09:32;;;;;;;21.40;11.80;;;;;;;11.64;32.14;99976.52;232971;1220;138931;-60
2022/03/13 12:14:54;;;;;;;19.90;12.00;;;;;;;11.97;31.90;99975.02;232951;1220;139257;-62
2022/03/13 12:19:59;;;;;;;25.60;16.00;;;;;;;12.27;31.79;99969.70;233037;1220;142295;-61
2022/03/13 12:25:03;;;;;;;23.60;13.40;;;;;;;12.50;31.92;99961.31;232975;1219;138951;-57
2022/03/13 12:30:06;;;;;;;26.80;14.30;;;;;;;12.73;31.63;99961.63;232978;1220;139198;-59
2022/03/13 12:35:10;;;;;;;25.30;15.70;;;;;;;12.79;30.82;99962.90;232885;1220;140206;-60
2022/03/13 12:40:13;;;;;;;24.80;15.10;;;;;;;12.87;30.55;99967.79;233029;1219;138742;-55
2022/03/13 12:45:22;;;;;;;40.20;23.30;;;;;;;12.87;30.99;99963.49;233040;1220;138892;-58
2022/03/13 12:50:28;;;;;;;21.80;13.80;;;;;;;12.94;30.52;99960.98;232824;1220;138939;-59
2022/03/13 12:55:32;;;;;;;20.90;13.30;;;;;;;12.88;30.23;99954.55;232968;1221;138733;-59
2022/03/13 13:00:36;;;;;;;18.00;10.80;;;;;;;12.98;29.68;99957.38;232867;1220;138955;-58
2022/03/13 13:05:50;;;;;;;18.60;11.90;;;;;;;13.07;29.55;99949.77;232934;1220;139720;-58
2022/03/13 13:10:57;;;;;;;100.10;68.20;;;;;;;13.27;29.64;99946.63;232969;1220;140076;-58
2022/03/13 13:16:00;;;;;;;56.30;35.30;;;;;;;13.44;29.56;99946.68;232976;1220;139994;-59
2022/03/13 13:21:09;;;;;;;23.80;13.80;;;;;;;13.71;29.49;99942.27;232949;1219;138995;-59
2022/03/13 13:26:18;;;;;;;20.90;12.70;;;;;;;13.94;29.33;99943.48;232967;1219;139221;-59
2022/03/13 13:31:22;;;;;;;20.50;12.30;;;;;;;14.20;29.02;99945.11;233122;1220;139272;-59
2022/03/13 13:36:26;;;;;;;28.30;13.10;;;;;;;14.37;28.87;99934.77;232997;1220;139613;-59
2022/03/13 13:41:29;;;;;;;21.10;12.60;;;;;;;14.55;28.41;99936.00;232975;1220;139334;-59
2022/03/13 13:46:33;;;;;;;19.90;11.30;;;;;;;14.71;28.29;99928.54;233097;1220;138807;-59
2022/03/13 13:51:37;;;;;;;18.60;11.30;;;;;;;14.65;27.75;99935.36;233046;1219;139167;-59
2022/03/13 13:56:53;;;;;;;17.10;11.00;;;;;;;14.22;27.29;99935.19;232542;1220;139318;-58
2022/03/13 14:02:03;;;;;;;19.30;11.20;;;;;;;13.66;27.20;99936.66;232996;1220;140197;-59
2022/03/13 14:07:08;;;;;;;16.90;10.50;;;;;;;13.20;27.14;99938.48;233091;1220;140928;-60
2022/03/13 14:12:12;;;;;;;15.90;10.20;;;;;;;12.75;27.42;99937.16;233106;1219;139365;-59
2022/03/13 14:17:16;;;;;;;22.00;10.50;;;;;;;12.38;27.31;99935.98;232981;1220;139214;-59
2022/03/13 14:22:19;;;;;;;20.90;10.90;;;;;;;12.13;27.19;99936.84;232976;1219;140025;-59
2022/03/13 14:27:21;;;;;;;18.10;11.30;;;;;;;11.82;26.93;99935.46;232977;1220;139443;-59
2022/03/13 14:32:25;;;;;;;21.60;13.40;;;;;;;11.58;27.29;99936.50;233020;1220;138884;-58
2022/03/13 14:37:28;;;;;;;23.40;13.40;;;;;;;11.39;27.30;99938.70;233237;1219;141377;-58
2022/03/13 14:42:51;;;;;;;23.50;13.80;;;;;;;11.25;27.58;99933.59;233017;1219;139156;-58
2022/03/13 14:47:55;;;;;;;24.70;14.10;;;;;;;11.16;27.87;99933.33;233001;1220;139576;-59
2022/03/13 14:53:20;;;;;;;23.00;13.90;;;;;;;11.07;27.72;99938.55;233049;1220;139679;-59
2022/03/13 14:58:24;;;;;;;242.90;139.00;;;;;;;11.01;27.98;99940.98;233029;1220;140198;-59
2022/03/13 15:03:27;;;;;;;36.00;21.50;;;;;;;11.05;28.28;99940.23;232933;1220;139830;-60
2022/03/13 15:08:33;;;;;;;26.70;15.60;;;;;;;11.00;28.24;99938.91;233151;1218;139371;-60
2022/03/13 15:13:37;;;;;;;22.30;14.20;;;;;;;10.91;28.07;99945.03;233084;1220;142213;-59
2022/03/13 15:18:40;;;;;;;23.10;13.90;;;;;;;10.82;28.05;99943.52;233102;1220;139136;-59
2022/03/13 15:23:43;;;;;;;22.70;13.50;;;;;;;10.73;27.98;99947.13;233039;1220;140581;-59
2022/03/13 15:28:46;;;;;;;23.10;13.20;;;;;;;10.66;27.97;99952.46;232881;1220;139615;-59
2022/03/13 15:33:51;;;;;;;23.80;15.10;;;;;;;10.57;28.19;99959.09;232907;1220;138712;-59
2022/03/13 15:38:59;;;;;;;27.40;12.90;;;;;;;10.48;28.16;99963.45;233152;1217;139571;-58
2022/03/13 15:44:02;;;;;;;20.70;11.80;;;;;;;10.39;28.04;99968.61;233187;1219;138872;-60
2022/03/13 15:49:05;;;;;;;20.00;11.30;;;;;;;10.33;28.13;99973.48;233118;1220;139118;-59
2022/03/13 15:54:09;;;;;;;19.40;11.30;;;;;;;10.28;28.37;99974.45;233043;1220;139136;-61
2022/03/13 15:59:13;;;;;;;18.80;11.10;;;;;;;10.21;28.40;99973.84;233053;1218;139378;-59
2022/03/13 16:04:16;;;;;;;21.90;10.10;;;;;;;10.13;28.27;99971.71;233087;1220;140629;-59
2022/03/13 16:09:19;;;;;;;18.40;10.30;;;;;;;10.05;28.25;99970.30;232823;1220;231423;-59
2022/03/13 16:14:22;;;;;;;18.20;10.40;;;;;;;9.96;28.34;99975.52;233022;1220;139130;-60
2022/03/13 16:19:25;;;;;;;17.20;10.10;;;;;;;9.85;28.27;99980.95;232994;1220;138879;-59
2022/03/13 16:24:28;;;;;;;20.10;11.10;;;;;;;9.74;28.40;99984.82;233064;1220;138864;-59
2022/03/13 16:29:34;;;;;;;17.90;10.10;;;;;;;9.62;28.58;99993.09;233107;1219;138930;-59
2022/03/13 16:34:38;;;;;;;20.80;11.00;;;;;;;9.52;28.59;99994.98;233040;1220;138580;-59
2022/03/13 16:39:41;;;;;;;21.40;11.00;;;;;;;9.41;28.59;99998.78;232957;1218;139972;-60
2022/03/13 16:44:44;;;;;;;22.90;11.40;;;;;;;9.30;28.54;99998.19;233067;1220;138642;-59
2022/03/13 16:49:49;;;;;;;25.60;11.20;;;;;;;9.18;28.60;100000.27;233188;1220;138980;-59
2022/03/13 16:54:53;;;;;;;20.20;11.70;;;;;;;9.07;28.64;100005.68;232956;1220;140537;-59
2022/03/13 16:59:56;;;;;;;22.30;11.50;;;;;;;8.96;28.63;100010.87;233135;1218;139275;-60
2022/03/13 17:04:59;;;;;;;23.80;12.60;;;;;;;8.84;28.80;100012.94;233159;1220;139787;-59
2022/03/13 17:10:06;;;;;;;23.60;13.40;;;;;;;8.74;28.96;100015.11;233200;1220;139208;-60
2022/03/13 17:15:13;;;;;;;24.90;14.10;;;;;;;8.63;29.16;100019.24;233255;1219;138509;-60
2022/03/13 17:20:17;;;;;;;25.90;15.10;;;;;;;8.53;29.34;100021.05;233209;1220;138902;-61
2022/03/13 17:25:20;;;;;;;27.30;15.40;;;;;;;8.44;29.34;100027.06;233235;1219;138555;-60
2022/03/13 17:30:23;;;;;;;27.90;14.80;;;;;;;8.33;29.64;100036.60;232936;1220;138455;-60
2022/03/13 17:35:26;;;;;;;25.90;15.20;;;;;;;8.23;29.78;100040.88;233110;1220;138140;-62
2022/03/13 17:40:30;;;;;;;34.80;17.10;;;;;;;8.14;30.13;100046.67;233202;1219;138845;-59
2022/03/13 17:45:33;;;;;;;33.70;17.70;;;;;;;8.04;30.39;100049.85;233066;1219;138877;-59
2022/03/13 17:50:37;;;;;;;30.30;17.50;;;;;;;7.91;30.58;100049.80;233187;1220;138600;-61
2022/03/13 17:55:40;;;;;;;77.80;47.00;;;;;;;7.80;31.47;100051.20;233254;1220;138821;-60
2022/03/13 18:00:45;;;;;;;35.60;20.90;;;;;;;7.94;32.19;100057.80;232954;1220;139267;-58
2022/03/13 18:05:48;;;;;;;38.80;20.40;;;;;;;7.90;31.54;100054.77;233140;1220;139748;-58
2022/03/13 18:10:52;;;;;;;37.30;19.80;;;;;;;7.75;31.48;100057.20;232915;1220;138528;-61
2022/03/13 18:15:55;;;;;;;43.90;20.60;;;;;;;7.62;31.65;100060.83;233066;1220;138709;-59
2022/03/13 18:20:58;;;;;;;40.70;21.20;;;;;;;7.54;32.00;100065.16;233054;1220;139155;-59
2022/03/13 18:26:01;;;;;;;39.80;22.00;;;;;;;7.46;32.18;100070.58;233149;1219;140021;-60
2022/03/13 18:31:04;;;;;;;43.80;22.50;;;;;;;7.38;32.39;100074.02;233119;1219;139246;-60
2022/03/13 18:36:07;;;;;;;45.50;22.50;;;;;;;7.28;32.30;100075.55;233010;1219;139696;-61
2022/03/13 18:41:11;;;;;;;39.90;22.00;;;;;;;7.21;32.64;100084.59;233171;1220;140832;-60
2022/03/13 18:46:14;;;;;;;42.70;22.60;;;;;;;7.13;32.71;100093.30;233164;1220;138585;-59
2022/03/13 18:51:17;;;;;;;40.20;21.80;;;;;;;7.03;32.53;100099.81;233226;1220;139321;-60
2022/03/13 18:56:20;;;;;;;45.30;23.00;;;;;;;6.92;32.76;100110.00;233181;1220;138507;-61
2022/03/13 19:01:24;;;;;;;48.00;24.10;;;;;;;6.83;33.10;100112.38;233256;1219;138634;-61
2022/03/13 19:06:28;;;;;;;47.00;24.80;;;;;;;6.77;33.36;100110.45;233154;1219;138840;-61
2022/03/13 19:11:34;;;;;;;48.50;26.30;;;;;;;6.74;33.63;100111.77;233151;1220;141480;-61
2022/03/13 19:16:38;;;;;;;49.50;25.20;;;;;;;6.75;33.83;100108.93;233100;1220;138463;-59
2022/03/13 19:21:41;;;;;;;45.30;25.40;;;;;;;6.75;34.07;100117.20;233157;1220;138621;-61
2022/03/13 19:26:45;;;;;;;50.40;25.70;;;;;;;6.70;34.11;100127.75;233116;1220;139396;-61
2022/03/13 19:31:48;;;;;;;43.40;25.40;;;;;;;6.61;34.54;100127.11;233191;1219;138427;-60
2022/03/13 19:36:51;;;;;;;43.10;24.30;;;;;;;6.54;34.38;100129.80;233057;1219;138450;-60
2022/03/13 19:41:54;;;;;;;43.90;25.50;;;;;;;6.48;34.55;100132.79;232964;1220;138539;-59
2022/03/13 19:54:01;;;;;;;53.80;27.40;;;;;;;6.70;35.57;100134.84;233095;1219;138849;-61
2022/03/13 19:59:07;;;;;;;47.00;26.10;;;;;;;6.60;35.31;100130.35;232731;1217;139348;-63
2022/03/13 20:04:34;;;;;;;53.10;25.80;;;;;;;6.43;35.41;100131.88;233130;1220;138606;-61
2022/03/13 20:09:39;;;;;;;53.20;27.10;;;;;;;6.23;35.44;100135.75;232937;1218;138498;-60
2022/03/13 20:14:44;;;;;;;50.90;26.40;;;;;;;6.10;35.69;100142.63;232963;1219;139043;-60
2022/03/13 20:19:47;;;;;;;47.50;28.20;;;;;;;6.02;36.05;100142.65;233152;1220;140641;-60
2022/03/13 20:24:52;;;;;;;45.00;23.60;;;;;;;6.01;36.32;100140.56;233146;1220;139346;-60
2022/03/13 20:29:55;;;;;;;47.10;25.90;;;;;;;6.03;36.60;100141.75;233003;1220;138788;-60
2022/03/13 20:34:58;;;;;;;44.50;24.50;;;;;;;6.07;36.65;100139.88;233121;1219;138647;-61
2022/03/13 20:40:02;;;;;;;206.10;130.60;;;;;;;6.07;37.24;100140.76;233172;1219;138955;-61
2022/03/13 20:45:07;;;;;;;48.20;25.90;;;;;;;6.22;38.02;100144.23;233072;1220;139293;-60
2022/03/13 20:50:11;;;;;;;39.40;23.70;;;;;;;6.27;37.88;100138.29;233092;1220;138214;-60
2022/03/13 20:55:14;;;;;;;42.90;23.90;;;;;;;6.11;37.65;100140.14;233162;1220;140192;-62
2022/03/13 21:00:22;;;;;;;46.80;25.00;;;;;;;5.93;37.76;100138.30;233205;1220;139588;-61
2022/03/13 21:05:25;;;;;;;44.20;25.70;;;;;;;5.77;37.71;100139.20;233114;1219;139051;-61
2022/03/13 21:10:28;;;;;;;51.20;27.10;;;;;;;5.62;37.98;100141.68;232987;1220;139418;-62
2022/03/13 21:15:33;;;;;;;50.00;26.80;;;;;;;5.49;38.47;100145.86;233068;1219;138749;-62
2022/03/13 21:20:36;;;;;;;47.30;26.50;;;;;;;5.38;38.52;100147.88;233015;1219;139182;-60
2022/03/13 21:25:40;;;;;;;51.50;27.40;;;;;;;5.25;38.97;100148.33;233320;1219;138710;-61
2022/03/13 21:30:44;;;;;;;50.70;27.10;;;;;;;5.16;39.58;100148.89;233248;1218;139447;-61
2022/03/13 21:35:48;;;;;;;54.10;28.40;;;;;;;5.08;39.61;100151.02;233132;1218;138921;-62
2022/03/13 21:40:51;;;;;;;56.50;28.10;;;;;;;5.01;40.05;100152.59;233178;1219;139034;-61
2022/03/13 21:45:54;;;;;;;53.70;27.70;;;;;;;4.94;40.02;100156.75;233270;1219;138681;-60
2022/03/13 21:50:57;;;;;;;60.80;28.50;;;;;;;4.88;40.33;100154.60;233249;1218;138988;-60
2022/03/13 21:56:02;;;;;;;51.70;27.60;;;;;;;4.84;40.56;100156.42;233308;1218;139768;-64
2022/03/13 22:01:06;;;;;;;52.10;28.90;;;;;;;4.81;40.81;100157.03;233224;1218;139346;-61
2022/03/13 22:06:10;;;;;;;51.60;29.10;;;;;;;4.76;41.04;100156.61;233322;1218;138893;-61
2022/03/13 22:11:15;;;;;;;58.70;29.00;;;;;;;4.73;41.29;100153.67;233221;1219;138642;-61
2022/03/13 22:16:27;;;;;;;53.90;27.80;;;;;;;4.69;41.38;100153.94;233126;1219;139474;-61
2022/03/13 22:21:30;;;;;;;60.30;29.50;;;;;;;4.62;41.50;100155.30;232853;1218;138793;-59
2022/03/13 22:26:34;;;;;;;57.50;28.60;;;;;;;4.56;41.61;100160.33;233284;1219;138557;-61
2022/03/13 22:31:38;;;;;;;57.80;28.60;;;;;;;4.51;41.90;100170.27;233383;1218;138940;-60
2022/03/13 22:36:41;;;;;;;52.10;28.70;;;;;;;4.44;42.09;100168.48;233282;1219;139797;-61
2022/03/13 22:41:44;;;;;;;53.30;28.60;;;;;;;4.38;42.30;100162.79;233290;1218;140502;-61
2022/03/13 22:46:52;;;;;;;58.90;30.30;;;;;;;4.33;42.59;100160.60;233267;1218;139173;-61